Time;durP1;ratioP1;P1;durP2;ratioP2;P2;SDS_P1;SDS_P2;PMS_P1;PMS_P2;Temp;Humidity;BMP_temperature;BMP_pressure;BME280_temperature;BME280_humidity;BME280_pressure;Samples;Min_cycle;Max_cycle;Signal;HPM_P1;HPM_P2
2023/12/24 00:00:17;;;;;;;1.83;0.63;;;;;;;6.29;100.00;96820.56;4985688;28;20053;-72
2023/12/24 00:02:42;;;;;;;1.00;0.80;;;;;;;6.26;100.00;96815.00;4980599;28;20039;-73
2023/12/24 00:05:07;;;;;;;0.80;0.80;;;;;;;6.24;100.00;96811.81;4983773;28;20042;-74
2023/12/24 00:07:33;;;;;;;0.60;0.60;;;;;;;6.27;100.00;96811.16;4993407;28;20480;-72
2023/12/24 00:09:58;;;;;;;0.70;0.70;;;;;;;6.23;100.00;96808.31;4990545;28;20034;-73
2023/12/24 00:12:24;;;;;;;0.60;0.60;;;;;;;6.29;100.00;96823.28;4985206;28;20043;-72
2023/12/24 00:14:50;;;;;;;0.70;0.70;;;;;;;6.28;100.00;96821.72;4987111;28;20030;-71
2023/12/24 00:17:15;;;;;;;0.88;0.65;;;;;;;6.34;100.00;96824.19;4989308;28;20560;-73
2023/12/24 00:19:41;;;;;;;0.70;0.70;;;;;;;6.30;100.00;96805.84;4992070;28;20133;-72
2023/12/24 00:22:06;;;;;;;0.77;0.75;;;;;;;6.33;100.00;96804.38;4993374;28;20508;-71
2023/12/24 00:24:32;;;;;;;1.63;0.70;;;;;;;6.30;100.00;96802.31;4993303;28;20118;-72
2023/12/24 00:26:58;;;;;;;1.65;0.63;;;;;;;6.33;100.00;96815.25;4984883;28;20034;-72
2023/12/24 00:29:23;;;;;;;0.70;0.70;;;;;;;6.35;100.00;96815.69;4982054;28;20042;-73
2023/12/24 00:31:48;;;;;;;1.20;0.70;;;;;;;6.36;100.00;96817.31;4982152;28;20049;-71
2023/12/24 00:34:14;;;;;;;0.63;0.63;;;;;;;6.32;100.00;96822.63;4978764;28;20038;-71
2023/12/24 00:36:39;;;;;;;1.77;0.77;;;;;;;6.31;100.00;96829.19;4982895;28;20394;-72
2023/12/24 00:39:04;;;;;;;0.90;0.70;;;;;;;6.31;100.00;96820.22;4960870;28;20042;-71
2023/12/24 00:41:30;;;;;;;0.60;0.60;;;;;;;6.29;100.00;96831.44;4982688;28;20603;-71
2023/12/24 00:43:56;;;;;;;2.58;0.90;;;;;;;6.26;100.00;96837.53;4981481;28;20042;-71
2023/12/24 00:46:21;;;;;;;0.80;0.70;;;;;;;6.31;100.00;96834.63;4978785;28;20076;-73
2023/12/24 00:48:47;;;;;;;0.73;0.60;;;;;;;6.27;100.00;96844.59;4988304;28;20035;-71
2023/12/24 00:51:12;;;;;;;0.60;0.60;;;;;;;6.30;100.00;96826.78;4976198;28;20046;-70
2023/12/24 00:53:38;;;;;;;0.60;0.60;;;;;;;6.32;100.00;96847.09;4990179;28;20034;-76
2023/12/24 00:56:03;;;;;;;0.50;0.50;;;;;;;6.25;100.00;96849.56;5002677;28;20042;-73
2023/12/24 00:58:29;;;;;;;0.57;0.57;;;;;;;6.27;100.00;96846.53;4996239;28;20114;-72
2023/12/24 01:00:55;;;;;;;0.90;0.70;;;;;;;6.27;100.00;96849.25;4987924;28;20045;-73
2023/12/24 01:03:21;;;;;;;0.98;0.80;;;;;;;6.30;100.00;96834.94;4990715;28;20038;-74
2023/12/24 01:05:46;;;;;;;0.63;0.63;;;;;;;6.29;100.00;96861.38;5018605;28;20589;-75
2023/12/24 01:08:11;;;;;;;1.15;0.60;;;;;;;6.30;100.00;96849.38;4993524;28;20068;-72
2023/12/24 01:10:37;;;;;;;0.77;0.77;;;;;;;6.27;100.00;96852.75;5021866;28;20125;-73
2023/12/24 01:13:02;;;;;;;0.60;0.60;;;;;;;6.26;100.00;96848.44;5004893;28;20042;-75
2023/12/24 01:15:28;;;;;;;3.35;0.80;;;;;;;6.25;100.00;96851.50;4982861;28;20046;-71
2023/12/24 01:17:53;;;;;;;0.60;0.60;;;;;;;6.33;100.00;96850.63;4998429;28;20034;-74
2023/12/24 01:20:18;;;;;;;1.00;0.70;;;;;;;6.39;100.00;96860.16;4991522;28;20054;-73
2023/12/24 01:22:44;;;;;;;0.60;0.60;;;;;;;6.25;100.00;96848.78;4994645;28;20042;-73
2023/12/24 01:25:10;;;;;;;1.55;0.70;;;;;;;6.18;100.00;96851.25;4989206;28;20038;-74
2023/12/24 01:27:36;;;;;;;0.70;0.70;;;;;;;6.16;100.00;96848.88;5001864;28;20038;-74
2023/12/24 01:30:02;;;;;;;1.05;0.70;;;;;;;6.09;100.00;96845.88;4999595;28;20033;-73
2023/12/24 01:32:28;;;;;;;0.90;0.68;;;;;;;6.10;100.00;96858.34;5009258;28;20077;-73
2023/12/24 01:34:53;;;;;;;1.35;0.77;;;;;;;6.19;100.00;96852.81;4994077;28;20042;-72
2023/12/24 01:37:18;;;;;;;0.70;0.70;;;;;;;6.09;100.00;96860.28;4988238;28;20666;-75
2023/12/24 01:39:44;;;;;;;1.17;0.80;;;;;;;6.16;100.00;96858.91;5007051;28;20034;-73
2023/12/24 01:42:09;;;;;;;1.00;0.65;;;;;;;6.23;100.00;96860.00;5002620;28;20118;-73
2023/12/24 01:44:35;;;;;;;0.70;0.70;;;;;;;6.10;100.00;96850.19;4999566;28;20710;-74
2023/12/24 01:47:00;;;;;;;1.42;0.80;;;;;;;6.10;100.00;96858.34;4997335;28;20033;-72
2023/12/24 01:49:26;;;;;;;0.82;0.82;;;;;;;6.10;100.00;96863.78;5005979;28;20034;-73
2023/12/24 01:51:52;;;;;;;0.68;0.68;;;;;;;6.11;100.00;96857.22;5000919;28;20034;-72
2023/12/24 01:54:17;;;;;;;0.63;0.63;;;;;;;6.04;100.00;96859.69;4979678;28;20481;-72
2023/12/24 01:56:43;;;;;;;1.38;0.80;;;;;;;6.03;100.00;96861.63;5001248;28;20045;-70
2023/12/24 01:59:09;;;;;;;0.82;0.70;;;;;;;6.04;100.00;96857.75;4983468;28;20517;-71
2023/12/24 02:01:36;;;;;;;0.80;0.80;;;;;;;6.08;100.00;96866.03;4998290;28;20126;-74
2023/12/24 02:04:02;;;;;;;1.15;0.75;;;;;;;6.08;100.00;96857.88;4996005;28;20046;-76
2023/12/24 02:06:27;;;;;;;0.70;0.70;;;;;;;6.03;100.00;96852.63;5006902;28;20045;-75
2023/12/24 02:08:55;;;;;;;0.70;0.70;;;;;;;6.00;100.00;96845.97;4994840;28;20042;-75
2023/12/24 02:11:21;;;;;;;1.10;0.80;;;;;;;5.91;100.00;96856.09;4986328;28;20493;-73
2023/12/24 02:13:47;;;;;;;1.58;0.70;;;;;;;6.00;100.00;96854.13;4999515;28;20052;-74
2023/12/24 02:16:17;;;;;;;1.33;0.70;;;;;;;5.94;100.00;96860.84;4991082;28;20128;-72
2023/12/24 02:18:43;;;;;;;0.85;0.77;;;;;;;5.87;100.00;96853.22;4985721;28;20104;-72
2023/12/24 02:21:08;;;;;;;0.70;0.52;;;;;;;5.87;100.00;96855.94;5011904;28;20030;-73
2023/12/24 02:23:33;;;;;;;1.80;0.82;;;;;;;5.88;100.00;96841.22;5016357;28;20045;-73
2023/12/24 02:26:37;;;;;;;0.88;0.88;;;;;;;5.78;100.00;96847.06;5001071;28;20037;-73
2023/12/24 02:29:12;;;;;;;0.75;0.75;;;;;;;5.77;100.00;96848.19;4972535;28;20038;-73
2023/12/24 02:31:42;;;;;;;0.90;0.77;;;;;;;5.66;100.00;96841.56;4992724;28;20049;-74
2023/12/24 02:34:09;;;;;;;;;;;;;;;5.71;100.00;96847.59;4990359;28;20065;-73
2023/12/24 02:36:35;;;;;;;2.00;1.00;;;;;;;5.65;100.00;96840.75;4999404;28;19920;-71
2023/12/24 02:39:01;;;;;;;1.35;1.00;;;;;;;5.59;100.00;96841.28;4975001;28;20042;-72
2023/12/24 02:41:26;;;;;;;1.77;0.80;;;;;;;5.60;100.00;96838.25;4969172;28;20525;-70
2023/12/24 02:43:51;;;;;;;0.82;0.80;;;;;;;5.53;100.00;96827.09;4991197;28;20084;-73
2023/12/24 02:46:17;;;;;;;0.98;0.80;;;;;;;5.51;100.00;96818.47;4985408;28;20092;-72
2023/12/24 02:48:42;;;;;;;0.80;0.80;;;;;;;5.43;100.00;96832.94;4988840;28;20694;-71
2023/12/24 02:51:08;;;;;;;1.00;0.90;;;;;;;5.42;100.00;96826.69;4982817;28;20065;-72
2023/12/24 02:53:33;;;;;;;0.77;0.75;;;;;;;5.46;100.00;96829.56;4996864;28;20557;-75
2023/12/24 02:55:59;;;;;;;1.60;1.00;;;;;;;5.40;100.00;96825.44;4987911;28;20050;-73
2023/12/24 02:58:25;;;;;;;0.85;0.70;;;;;;;5.35;100.00;96810.91;4987065;28;20042;-72
2023/12/24 03:00:50;;;;;;;1.23;0.90;;;;;;;5.30;100.00;96816.53;4991599;28;20140;-73
2023/12/24 03:03:16;;;;;;;1.00;0.90;;;;;;;5.29;100.00;96817.66;4980106;28;20050;-72
2023/12/24 03:05:41;;;;;;;1.38;1.10;;;;;;;5.22;100.00;96813.88;4991698;28;20389;-71
2023/12/24 03:08:06;;;;;;;0.80;0.80;;;;;;;5.24;100.00;96814.34;4986261;28;20033;-72
2023/12/24 03:10:32;;;;;;;7.03;4.07;;;;;;;5.14;100.00;96813.59;4985603;28;20603;-72
2023/12/24 03:12:57;;;;;;;3.05;2.20;;;;;;;5.13;100.00;96806.59;4995022;28;20069;-71
2023/12/24 03:15:23;;;;;;;2.55;1.63;;;;;;;5.14;100.00;96799.22;4978322;28;20472;-72
2023/12/24 03:17:48;;;;;;;5.20;2.72;;;;;;;5.14;100.00;96815.53;4988758;28;20134;-73
2023/12/24 03:20:13;;;;;;;1.30;1.08;;;;;;;5.13;100.00;96813.91;4976257;28;20137;-72
2023/12/24 03:22:39;;;;;;;2.90;0.90;;;;;;;5.17;100.00;96812.16;4976417;28;20093;-69
2023/12/24 03:25:04;;;;;;;2.25;0.90;;;;;;;5.23;100.00;96816.25;4989518;28;20044;-74
2023/12/24 03:27:30;;;;;;;0.98;0.98;;;;;;;5.34;100.00;96820.19;4981853;28;20482;-71
2023/12/24 03:29:55;;;;;;;0.80;0.80;;;;;;;5.39;100.00;96818.41;4994157;28;20038;-71
2023/12/24 03:32:20;;;;;;;1.35;0.95;;;;;;;5.46;100.00;96822.19;4984170;28;20048;-72
2023/12/24 03:34:46;;;;;;;0.68;0.68;;;;;;;5.51;100.00;96826.63;4980474;28;20042;-70
2023/12/24 03:37:11;;;;;;;0.88;0.80;;;;;;;5.56;100.00;96829.16;4975220;28;20046;-73
2023/12/24 03:39:36;;;;;;;2.00;0.90;;;;;;;5.63;100.00;96828.63;4978504;28;20050;-73
2023/12/24 03:42:02;;;;;;;3.53;0.70;;;;;;;5.63;100.00;96825.91;4987790;28;20060;-71
2023/12/24 03:44:27;;;;;;;0.73;0.70;;;;;;;5.61;100.00;96826.25;4986072;28;20046;-72
2023/12/24 03:46:53;;;;;;;0.80;0.80;;;;;;;5.53;100.00;96810.81;5011880;28;20042;-73
2023/12/24 03:49:20;;;;;;;0.80;0.80;;;;;;;5.53;100.00;96799.94;4999251;28;20038;-72
2023/12/24 03:51:47;;;;;;;1.35;0.82;;;;;;;5.50;100.00;96801.38;5007943;28;20477;-73
2023/12/24 03:54:12;;;;;;;0.85;0.80;;;;;;;5.52;100.00;96785.53;4986396;28;20050;-71
2023/12/24 03:56:38;;;;;;;0.95;0.80;;;;;;;5.51;100.00;96794.03;5002852;28;20042;-73
2023/12/24 03:59:03;;;;;;;0.73;0.73;;;;;;;5.49;100.00;96802.53;5000142;28;20568;-72
2023/12/24 04:01:29;;;;;;;1.15;0.90;;;;;;;5.54;100.00;96794.16;5015312;28;20053;-72
2023/12/24 04:03:54;;;;;;;1.17;0.85;;;;;;;5.49;100.00;96794.38;4996232;28;20046;-72
2023/12/24 04:06:19;;;;;;;0.98;0.80;;;;;;;5.53;100.00;96780.94;4997801;28;20065;-73
2023/12/24 04:08:45;;;;;;;0.80;0.70;;;;;;;5.57;100.00;96772.91;5000797;28;20188;-72
2023/12/24 04:11:17;;;;;;;2.47;0.80;;;;;;;5.53;100.00;96770.06;5004884;28;20111;-72
2023/12/24 04:13:43;;;;;;;1.00;0.90;;;;;;;5.46;100.00;96780.66;5001197;28;20042;-71
2023/12/24 04:16:09;;;;;;;2.58;1.00;;;;;;;5.47;100.00;96769.44;4991332;28;20105;-71
2023/12/24 04:18:35;;;;;;;1.08;0.85;;;;;;;5.43;100.00;96773.94;4995465;28;20520;-73
2023/12/24 04:21:01;;;;;;;1.52;1.05;;;;;;;5.39;100.00;96777.69;5004106;28;20037;-72
2023/12/24 04:23:27;;;;;;;0.80;0.80;;;;;;;5.45;100.00;96773.63;4990202;28;20053;-72
2023/12/24 04:25:52;;;;;;;1.23;0.85;;;;;;;5.30;100.00;96788.59;4985020;28;20070;-72
2023/12/24 04:28:17;;;;;;;0.80;0.80;;;;;;;5.31;100.00;96788.28;4994562;28;20046;-75
2023/12/24 04:30:43;;;;;;;1.52;0.90;;;;;;;5.34;100.00;96800.38;4983589;28;20042;-75
2023/12/24 04:33:10;;;;;;;1.67;0.90;;;;;;;5.42;100.00;96799.53;5010522;28;20041;-74
2023/12/24 04:35:36;;;;;;;0.80;0.80;;;;;;;5.59;100.00;96793.16;4996052;28;20065;-74
2023/12/24 04:38:03;;;;;;;1.00;0.88;;;;;;;5.64;100.00;96803.84;4983865;28;20692;-76
2023/12/24 04:40:28;;;;;;;2.50;0.80;;;;;;;5.77;100.00;96801.97;4989798;28;20061;-74
2023/12/24 04:42:54;;;;;;;4.35;1.00;;;;;;;5.74;100.00;96795.31;4989937;28;20034;-73
2023/12/24 04:45:19;;;;;;;1.55;1.02;;;;;;;5.69;100.00;96794.69;4986306;28;20121;-73
2023/12/24 04:47:45;;;;;;;1.20;0.98;;;;;;;5.68;100.00;96809.41;4997018;28;20038;-73
2023/12/24 04:50:10;;;;;;;0.93;0.82;;;;;;;5.80;100.00;96806.75;5013146;28;20853;-71
2023/12/24 04:52:37;;;;;;;1.67;0.90;;;;;;;5.85;100.00;96800.31;4991887;28;20152;-73
2023/12/24 04:55:04;;;;;;;1.90;1.05;;;;;;;5.89;100.00;96795.81;4987588;28;20033;-72
2023/12/24 04:57:30;;;;;;;2.05;1.00;;;;;;;5.88;100.00;96794.22;4993067;28;20050;-73
2023/12/24 04:59:56;;;;;;;1.98;0.70;;;;;;;5.87;100.00;96789.91;5012052;23;20072;-73
2023/12/24 05:02:21;;;;;;;1.00;0.80;;;;;;;5.91;100.00;96788.91;4996812;28;20086;-72
2023/12/24 05:04:49;;;;;;;1.98;1.10;;;;;;;5.85;100.00;96782.09;5007982;28;20423;-72
2023/12/24 05:07:14;;;;;;;0.80;0.80;;;;;;;5.89;100.00;96787.66;5001288;28;20124;-72
2023/12/24 05:09:41;;;;;;;1.25;0.80;;;;;;;5.86;100.00;96789.09;4998025;28;20038;-72
2023/12/24 05:12:07;;;;;;;0.90;0.82;;;;;;;5.92;100.00;96793.22;5009966;28;20069;-71
2023/12/24 05:14:34;;;;;;;0.77;0.70;;;;;;;5.85;100.00;96782.09;4987478;28;20050;-71
2023/12/24 05:16:59;;;;;;;0.80;0.80;;;;;;;5.88;100.00;96777.91;4986767;28;20046;-72
2023/12/24 05:19:25;;;;;;;1.40;0.80;;;;;;;5.84;100.00;96775.06;4980343;28;20046;-73
2023/12/24 05:21:50;;;;;;;1.35;0.77;;;;;;;5.88;100.00;96784.13;4995019;28;20030;-73
2023/12/24 05:24:15;;;;;;;1.05;0.95;;;;;;;5.82;100.00;96793.63;4984149;28;20057;-74
2023/12/24 05:26:41;;;;;;;1.60;0.90;;;;;;;5.80;100.00;96792.34;4982381;28;20488;-75
2023/12/24 05:29:06;;;;;;;1.08;0.80;;;;;;;5.90;100.00;96798.19;4986112;28;20038;-74
2023/12/24 05:31:31;;;;;;;1.35;0.80;;;;;;;5.93;100.00;96802.16;4983756;28;20492;-75
2023/12/24 05:33:57;;;;;;;0.88;0.80;;;;;;;5.93;100.00;96804.88;4995646;28;20120;-75
2023/12/24 05:36:22;;;;;;;0.88;0.80;;;;;;;5.86;100.00;96804.63;4985496;28;20488;-73
2023/12/24 05:38:47;;;;;;;0.85;0.80;;;;;;;5.89;100.00;96814.84;4986946;28;20069;-73
2023/12/24 05:41:15;;;;;;;1.08;0.95;;;;;;;5.84;100.00;96821.28;4979357;28;20588;-73
2023/12/24 05:43:41;;;;;;;1.65;0.80;;;;;;;6.00;100.00;96821.50;4990373;28;20515;-74
2023/12/24 05:46:13;;;;;;;1.00;0.90;;;;;;;5.91;100.00;96823.47;4977155;28;20042;-75
2023/12/24 05:48:39;;;;;;;1.05;0.93;;;;;;;6.01;100.00;96814.13;4986769;28;22238;-75
2023/12/24 05:51:04;;;;;;;1.35;0.90;;;;;;;6.06;100.00;96814.69;4987922;28;20049;-76
2023/12/24 05:53:29;;;;;;;1.52;0.80;;;;;;;6.05;100.00;96801.44;4999309;28;20127;-73
2023/12/24 05:55:55;;;;;;;1.30;1.00;;;;;;;6.04;100.00;96797.16;4992709;28;20049;-76
2023/12/24 05:58:20;;;;;;;3.42;1.20;;;;;;;5.96;100.00;96806.16;4985690;28;20053;-73
2023/12/24 06:00:47;;;;;;;1.33;1.23;;;;;;;5.90;100.00;96811.78;5007020;28;20113;-74
2023/12/24 06:03:12;;;;;;;1.00;0.80;;;;;;;5.91;100.00;96810.66;4995186;28;20050;-74
2023/12/24 06:05:37;;;;;;;0.82;0.82;;;;;;;5.88;100.00;96805.09;4989358;28;20448;-73
2023/12/24 06:08:03;;;;;;;1.48;0.95;;;;;;;5.78;100.00;96794.63;4991666;28;20049;-74
2023/12/24 06:10:29;;;;;;;1.00;0.80;;;;;;;5.73;100.00;96801.84;4992759;28;20050;-74
2023/12/24 06:12:54;;;;;;;1.13;0.80;;;;;;;5.60;100.00;96792.06;5004552;28;20140;-73
2023/12/24 06:15:20;;;;;;;1.00;0.90;;;;;;;5.52;100.00;96804.56;4981024;28;20656;-74
2023/12/24 06:17:45;;;;;;;1.60;0.90;;;;;;;5.43;100.00;96801.13;4981246;28;20065;-74
2023/12/24 06:20:11;;;;;;;1.17;0.93;;;;;;;5.61;100.00;96809.16;4976583;28;20068;-73
2023/12/24 06:22:36;;;;;;;1.35;1.08;;;;;;;5.45;100.00;96803.50;4985050;28;20077;-74
2023/12/24 06:25:02;;;;;;;2.30;1.00;;;;;;;5.45;100.00;96803.50;4988356;28;20057;-74
2023/12/24 06:27:28;;;;;;;1.90;1.00;;;;;;;5.43;100.00;96801.13;4977465;28;20222;-74
2023/12/24 06:29:53;;;;;;;0.93;0.82;;;;;;;5.38;100.00;96795.09;4995724;28;20181;-73
2023/12/24 06:32:19;;;;;;;1.63;0.93;;;;;;;5.34;100.00;96792.22;4975965;28;20516;-73
2023/12/24 06:34:44;;;;;;;1.55;1.00;;;;;;;5.24;100.00;96788.00;4980795;28;20038;-73
2023/12/24 06:37:10;;;;;;;2.10;1.20;;;;;;;5.26;100.00;96790.38;4975970;28;20103;-73
2023/12/24 06:39:35;;;;;;;1.58;1.00;;;;;;;5.32;100.00;96789.06;4988657;28;20422;-74
2023/12/24 06:42:00;;;;;;;1.05;0.80;;;;;;;5.27;100.00;96786.53;4986504;28;20046;-70
2023/12/24 06:44:26;;;;;;;1.92;0.90;;;;;;;5.28;100.00;96780.00;4980187;28;20104;-70
2023/12/24 06:46:51;;;;;;;0.80;0.80;;;;;;;5.32;100.00;96772.75;4996434;28;20036;-73
2023/12/24 06:49:18;;;;;;;1.08;0.85;;;;;;;5.29;100.00;96776.13;5008261;28;20050;-71
2023/12/24 06:51:43;;;;;;;1.40;1.20;;;;;;;5.29;100.00;96782.34;4982611;28;20042;-71
2023/12/24 06:54:09;;;;;;;0.95;0.80;;;;;;;5.23;100.00;96786.41;4975994;28;20503;-69
2023/12/24 06:56:34;;;;;;;1.33;1.02;;;;;;;5.31;100.00;96784.75;4979839;28;20053;-71
2023/12/24 06:59:00;;;;;;;1.65;1.02;;;;;;;5.31;100.00;96780.13;4980073;28;20054;-72
2023/12/24 07:01:25;;;;;;;1.20;1.00;;;;;;;5.38;100.00;96776.84;4985016;28;20046;-72
2023/12/24 07:03:50;;;;;;;1.50;0.80;;;;;;;5.34;100.00;96776.72;4979446;28;20046;-72
2023/12/24 07:06:16;;;;;;;1.35;1.00;;;;;;;5.39;100.00;96785.81;4997026;28;20048;-72
2023/12/24 07:08:42;;;;;;;1.27;0.80;;;;;;;5.33;100.00;96793.34;4982137;28;20096;-71
2023/12/24 07:11:08;;;;;;;1.00;0.90;;;;;;;5.29;100.00;96798.66;4991812;28;20317;-72
2023/12/24 07:13:33;;;;;;;1.42;0.98;;;;;;;5.40;100.00;96811.84;5001981;28;20068;-71
2023/12/24 07:15:59;;;;;;;1.15;0.95;;;;;;;5.48;100.00;96797.41;4979400;28;20490;-73
2023/12/24 07:18:25;;;;;;;1.67;1.10;;;;;;;5.41;100.00;96787.06;4990809;28;20058;-72
2023/12/24 07:20:51;;;;;;;1.35;1.10;;;;;;;5.40;100.00;96788.19;4980511;28;20056;-71
2023/12/24 07:23:16;;;;;;;1.05;0.95;;;;;;;5.35;100.00;96789.19;4976915;28;20555;-70
2023/12/24 07:25:41;;;;;;;2.70;1.08;;;;;;;5.41;100.00;96791.72;4994929;28;20046;-71
2023/12/24 07:28:07;;;;;;;1.27;1.00;;;;;;;5.40;100.00;96790.91;4989812;28;20038;-71
2023/12/24 07:30:32;;;;;;;2.20;0.90;;;;;;;5.40;100.00;96790.91;4987278;28;20042;-71
2023/12/24 07:32:57;;;;;;;1.50;0.80;;;;;;;5.38;100.00;96790.44;4987765;28;20046;-72
2023/12/24 07:35:23;;;;;;;1.63;1.23;;;;;;;5.38;100.00;96789.66;4983235;28;20110;-71
2023/12/24 07:37:48;;;;;;;1.08;0.80;;;;;;;5.48;100.00;96794.69;4987123;28;20485;-71
2023/12/24 07:40:14;;;;;;;17.50;9.43;;;;;;;5.53;100.00;96786.34;4974964;28;20046;-71
2023/12/24 07:42:39;;;;;;;1.27;1.10;;;;;;;5.57;100.00;96784.56;4990566;28;20049;-71
2023/12/24 07:45:05;;;;;;;1.98;0.93;;;;;;;5.60;100.00;96780.38;4997149;28;20287;-70
2023/12/24 07:47:31;;;;;;;0.90;0.75;;;;;;;5.70;100.00;96782.69;4988000;28;20060;-70
2023/12/24 07:49:57;;;;;;;1.33;0.98;;;;;;;5.75;100.00;96777.84;4998572;28;20125;-70
2023/12/24 07:52:22;;;;;;;1.10;1.00;;;;;;;6.00;100.00;96791.59;4986705;28;20062;-69
2023/12/24 07:54:47;;;;;;;1.17;1.05;;;;;;;6.35;100.00;96793.16;4999322;28;20042;-70
2023/12/24 07:57:13;;;;;;;1.42;1.25;;;;;;;6.83;100.00;96778.81;4993601;28;20049;-70
2023/12/24 07:59:39;;;;;;;4.78;1.23;;;;;;;7.17;100.00;96771.31;4993934;28;20042;-70
2023/12/24 08:02:04;;;;;;;1.77;1.10;;;;;;;7.77;100.00;96759.81;4989050;28;20061;-72
2023/12/24 08:04:31;;;;;;;2.42;1.10;;;;;;;8.49;100.00;96756.28;4998584;28;20396;-70
2023/12/24 08:06:56;;;;;;;2.95;1.55;;;;;;;8.27;100.00;96755.72;4991366;28;20412;-70
2023/12/24 08:09:22;;;;;;;5.07;1.80;;;;;;;8.54;100.00;96759.53;4984749;28;20271;-71
2023/12/24 08:11:47;;;;;;;2.70;1.60;;;;;;;8.50;100.00;96766.88;5005295;28;20038;-70
2023/12/24 08:14:12;;;;;;;3.22;1.80;;;;;;;8.73;100.00;96764.31;5006320;28;20081;-69
2023/12/24 08:16:38;;;;;;;2.25;1.17;;;;;;;8.42;100.00;96759.63;4992710;28;20622;-72
2023/12/24 08:19:03;;;;;;;2.00;0.98;;;;;;;8.04;100.00;96761.72;4984782;28;20420;-72
2023/12/24 08:21:29;;;;;;;1.40;0.90;;;;;;;7.65;100.00;96756.00;5012148;28;20046;-72
2023/12/24 08:23:54;;;;;;;4.82;2.20;;;;;;;7.66;100.00;96751.31;4991847;28;20038;-72
2023/12/24 08:26:20;;;;;;;1.67;1.20;;;;;;;7.35;100.00;96750.06;4994259;28;20046;-71
2023/12/24 08:28:45;;;;;;;1.35;0.93;;;;;;;7.33;100.00;96755.06;4997241;28;20042;-72
2023/12/24 08:31:11;;;;;;;1.33;0.90;;;;;;;7.26;100.00;96766.53;4994422;28;20048;-71
2023/12/24 08:33:37;;;;;;;1.20;1.00;;;;;;;7.16;100.00;96767.00;4999768;28;20053;-71
2023/12/24 08:36:04;;;;;;;2.25;1.17;;;;;;;7.17;100.00;96774.03;5005377;28;20038;-71
2023/12/24 08:38:29;;;;;;;2.75;1.05;;;;;;;6.97;100.00;96767.59;5005787;28;20042;-72
2023/12/24 08:40:54;;;;;;;1.80;0.98;;;;;;;6.96;100.00;96776.09;5000069;28;20050;-71
2023/12/24 08:43:20;;;;;;;1.15;1.05;;;;;;;6.94;100.00;96775.66;4998977;28;20136;-72
2023/12/24 08:45:45;;;;;;;1.48;0.93;;;;;;;7.05;100.00;96769.38;5002303;28;20663;-70
2023/12/24 08:48:11;;;;;;;1.92;0.93;;;;;;;6.85;100.00;96764.88;4996948;28;20487;-71
2023/12/24 08:50:36;;;;;;;1.70;0.80;;;;;;;6.80;100.00;96768.59;4999858;28;20042;-71
2023/12/24 08:53:02;;;;;;;0.80;0.80;;;;;;;6.94;100.00;96770.19;4986762;28;20048;-71
2023/12/24 08:55:27;;;;;;;0.93;0.85;;;;;;;6.93;100.00;96777.56;4990290;28;20041;-71
2023/12/24 08:57:53;;;;;;;1.15;0.90;;;;;;;6.77;100.00;96790.25;5004462;28;20037;-72
2023/12/24 09:00:19;;;;;;;1.70;1.00;;;;;;;6.73;100.00;96802.97;4981357;28;20054;-70
2023/12/24 09:02:44;;;;;;;1.55;1.27;;;;;;;6.72;100.00;96807.63;4990515;28;20042;-71
2023/12/24 09:05:10;;;;;;;2.75;1.20;;;;;;;6.93;100.00;96809.44;4990513;28;20044;-70
2023/12/24 09:07:36;;;;;;;1.17;0.80;;;;;;;6.81;100.00;96808.31;5001251;28;20069;-70
2023/12/24 09:10:03;;;;;;;1.15;0.90;;;;;;;6.96;100.00;96795.94;4998108;28;20070;-71
2023/12/24 09:12:28;;;;;;;1.70;1.10;;;;;;;6.91;100.00;96782.53;4980970;28;20026;-70
2023/12/24 09:14:54;;;;;;;0.95;0.80;;;;;;;6.79;100.00;96772.47;4993303;28;20085;-70
2023/12/24 09:17:19;;;;;;;1.17;0.93;;;;;;;6.92;100.00;96767.03;4995308;28;20052;-71
2023/12/24 09:19:45;;;;;;;1.10;0.90;;;;;;;6.94;100.00;96776.44;4985070;28;20054;-71
2023/12/24 09:22:10;;;;;;;2.10;1.10;;;;;;;7.04;100.00;96783.34;4988730;28;20054;-72
2023/12/24 09:24:36;;;;;;;2.00;1.25;;;;;;;7.00;100.00;96782.44;5000406;28;20473;-72
2023/12/24 09:27:01;;;;;;;1.40;1.00;;;;;;;7.01;100.00;96786.75;5003578;28;20064;-71
2023/12/24 09:29:27;;;;;;;1.25;1.02;;;;;;;7.00;100.00;96796.84;4985647;28;20060;-70
2023/12/24 09:31:53;;;;;;;1.98;1.05;;;;;;;6.84;100.00;96799.47;5001817;28;20041;-74
2023/12/24 09:34:18;;;;;;;1.65;1.08;;;;;;;6.87;100.00;96806.94;4982714;28;20117;-72
2023/12/24 09:36:44;;;;;;;1.17;1.00;;;;;;;6.87;100.00;96789.81;5009966;28;20105;-69
2023/12/24 09:39:09;;;;;;;1.95;1.05;;;;;;;6.80;100.00;96786.88;4989680;28;20436;-73
2023/12/24 09:41:37;;;;;;;1.10;0.88;;;;;;;6.81;100.00;96791.19;4986307;28;20080;-73
2023/12/24 09:44:04;;;;;;;1.65;0.90;;;;;;;6.85;100.00;96794.81;4984044;28;20038;-74
2023/12/24 09:46:29;;;;;;;0.82;0.80;;;;;;;6.91;100.00;96785.28;4978009;28;20141;-72
2023/12/24 09:48:55;;;;;;;1.83;1.30;;;;;;;6.91;100.00;96782.53;4992303;28;20120;-73
2023/12/24 09:51:21;;;;;;;2.38;1.40;;;;;;;6.90;100.00;96800.03;4985750;28;20038;-72
2023/12/24 09:53:48;;;;;;;1.73;1.10;;;;;;;6.92;100.00;96794.25;4985272;28;20096;-72
2023/12/24 09:56:14;;;;;;;1.25;1.13;;;;;;;6.99;100.00;96794.47;4991201;28;20080;-74
2023/12/24 09:58:41;;;;;;;1.33;1.17;;;;;;;7.20;100.00;96792.44;4984529;28;20078;-73
2023/12/24 10:01:07;;;;;;;1.58;1.20;;;;;;;7.19;100.00;96796.28;4990878;28;20109;-73
2023/12/24 10:03:32;;;;;;;1.73;1.17;;;;;;;7.09;100.00;96794.00;4980837;28;20130;-73
2023/12/24 10:06:01;;;;;;;1.15;0.90;;;;;;;7.08;100.00;96789.72;4989474;28;20516;-75
2023/12/24 10:08:26;;;;;;;2.75;1.45;;;;;;;6.98;100.00;96773.81;4981848;28;20052;-75
2023/12/24 10:10:52;;;;;;;1.33;1.10;;;;;;;7.04;100.00;96756.91;4995843;28;20030;-77
2023/12/24 10:13:21;;;;;;;1.52;1.20;;;;;;;7.00;100.00;96760.66;4994791;28;20054;-75
2023/12/24 10:15:47;;;;;;;1.92;1.20;;;;;;;6.91;100.00;96757.25;4997016;28;20047;-75
2023/12/24 10:18:19;;;;;;;2.72;1.30;;;;;;;6.93;100.00;96755.75;4979348;28;20113;-75
2023/12/24 10:20:46;;;;;;;1.98;0.90;;;;;;;7.05;100.00;96753.03;4988604;28;20078;-75
2023/12/24 10:23:12;;;;;;;1.40;1.10;;;;;;;7.02;100.00;96736.59;4976304;28;20050;-74
2023/12/24 10:25:37;;;;;;;22.50;2.40;;;;;;;6.91;100.00;96727.31;4988822;28;20735;-74
2023/12/24 10:28:07;;;;;;;1.50;1.00;;;;;;;6.97;100.00;96715.84;4984370;28;20045;-74
2023/12/24 10:30:33;;;;;;;2.00;1.30;;;;;;;7.02;100.00;96704.72;4986802;28;20042;-75
2023/12/24 10:33:09;;;;;;;1.67;1.00;;;;;;;7.09;100.00;96704.13;4994365;28;20031;-74
2023/12/24 10:35:35;;;;;;;1.52;1.30;;;;;;;7.12;100.00;96727.19;5005486;28;20522;-75
2023/12/24 10:38:15;;;;;;;6.55;1.48;;;;;;;7.28;100.00;96714.44;4996604;28;20081;-74
2023/12/24 10:40:43;;;;;;;;;;;;;;;7.25;100.00;96701.47;4998545;28;20057;-75
2023/12/24 10:43:08;;;;;;;1.65;1.05;;;;;;;7.26;100.00;96682.06;4988780;28;19922;-74
2023/12/24 10:45:34;;;;;;;1.63;1.00;;;;;;;7.26;100.00;96686.75;4980918;28;20484;-74
2023/12/24 10:48:00;;;;;;;2.05;1.10;;;;;;;7.20;100.00;96683.47;4989274;28;20121;-75
2023/12/24 10:50:25;;;;;;;4.88;3.15;;;;;;;7.26;100.00;96692.97;4976440;28;20455;-76
2023/12/24 10:52:51;;;;;;;6.20;2.17;;;;;;;7.36;100.00;96710.75;4989112;28;20045;-75
2023/12/24 10:55:17;;;;;;;3.45;1.13;;;;;;;7.38;100.00;96703.06;4976183;28;20046;-76
2023/12/24 10:58:19;;;;;;;2.28;1.10;;;;;;;7.50;100.00;96699.47;4981472;28;20042;-75
2023/12/24 11:00:45;;;;;;;0.95;0.80;;;;;;;7.43;100.00;96689.16;4998733;28;20113;-75
2023/12/24 11:03:10;;;;;;;2.42;1.13;;;;;;;7.50;100.00;96701.41;4989431;28;20061;-73
2023/12/24 11:05:43;;;;;;;4.38;1.02;;;;;;;7.46;100.00;96699.38;4982027;28;20489;-73
2023/12/24 11:08:21;;;;;;;1.10;0.90;;;;;;;7.45;100.00;96689.63;4979977;28;20046;-72
2023/12/24 11:10:54;;;;;;;1.73;1.23;;;;;;;7.39;100.00;96682.81;5000213;28;20053;-72
2023/12/24 11:13:31;;;;;;;1.42;1.00;;;;;;;7.39;100.00;96682.03;4991540;28;20050;-74
2023/12/24 11:15:58;;;;;;;1.83;1.27;;;;;;;7.38;100.00;96669.53;4983842;28;20053;-73
2023/12/24 11:18:45;;;;;;;2.17;1.33;;;;;;;7.41;100.00;96669.63;4975765;28;20038;-72
2023/12/24 11:21:12;;;;;;;2.40;1.10;;;;;;;7.41;100.00;96666.13;4975755;28;20532;-73
2023/12/24 11:23:40;;;;;;;1.45;1.02;;;;;;;7.38;100.00;96654.00;4980007;28;20034;-74
2023/12/24 11:26:31;;;;;;;4.00;1.35;;;;;;;7.35;100.00;96659.34;4957892;28;20053;-73
2023/12/24 11:28:57;;;;;;;2.75;1.02;;;;;;;7.35;100.00;96654.69;4980533;28;20077;-73